ULAA

Talagi Airport

Archangelsk, Russian Federation
TAF ULAA 181100Z 1812/1912 31006MPS 6000 BKN007 BKN012 TEMPO 1812/1816 24003G11MPS 2100 -SHRA BR BKN004 BKN011CB TEMPO 1816/1820 26003G11MPS 3100 -SHRA BR BKN011CB TEMPO 1820/1906 24003MPS 0400 SHRA FG BKN002 BKN011CB FM190800 27005G12MPS 4000 -SHRA BKN011CB
Issued Valid From Valid To
Oct-18 @ 11:00 UTC
(57 minutes ago)
Oct-18 @ 12:00 UTC
(in 3 minutes)
Oct-19 @ 12:00 UTC
(in 24 hours)
Oct-18 @ 12:00 to Oct-19 @ 08:00
TAF ULAA 181100Z 1812/1912 31006MPS 6000 BKN007 BKN012
Wind Visibility Clouds
310° at 12 knots 6,003 meters
  • Broken at 700' AGL
  • Broken at 1,200' AGL
Temporary Oct-18 @ 12:00 to Oct-18 @ 16:00
TEMPO 1812/1816 24003G11MPS 2100 -SHRA BR BKN004 BKN011CB
Wind Visibility Clouds Conditions
240° at 6 knots
 Gusting to 21 knots
2,092 meters
  • Broken at 400' AGL
  • Broken at 1,100' AGL
  • Light Rain
  • Mist
Temporary Oct-18 @ 16:00 to Oct-18 @ 20:00
TEMPO 1816/1820 26003G11MPS 3100 -SHRA BR BKN011CB
Wind Visibility Clouds Conditions
260° at 6 knots
 Gusting to 21 knots
3,106 meters
  • Broken at 1,100' AGL
  • Light Rain
  • Mist
Temporary Oct-18 @ 20:00 to Oct-19 @ 06:00
TEMPO 1820/1906 24003MPS 0400 SHRA FG BKN002 BKN011CB
Wind Visibility Clouds Conditions
240° at 6 knots 402 meters
  • Broken at 200' AGL
  • Broken at 1,100' AGL
  • Rain
  • Fog
From Oct-19 @ 08:00 to Oct-19 @ 12:00
FM190800 27005G12MPS 4000 -SHRA BKN011CB
Wind Visibility Clouds Conditions
270° at 10 knots
 Gusting to 23 knots
4,007 meters
  • Broken at 1,100' AGL
  • Light Rain
TAF ULAA 181100Z 1812/1912 31006MPS 6000 BKN007 BKN012 TEMPO 1812/1816 24003G11MPS 2100 -SHRA BR BKN004 BKN011CB TEMPO 1816/1820 26003G11MPS 3100 -SHRA BR BKN011CB TEMPO 1820/1906 24003MPS 0400 SHRA FG BKN002 BKN011CB FM190800 27005G12MPS 4000 -SHRA BKN011CB
Issued Oct-18 @ 11:00 UTC
(57 minutes ago)
Valid From Oct-18 @ 12:00 UTC
(in 3 minutes)
Valid To Oct-19 @ 12:00 UTC
(in 24 hours)
Oct-18 @ 12:00 - Oct-19 @ 08:00
Wind Visibility
310° at 12 knots 6,003 meters
Clouds
  • Broken at 700' AGL
  • Broken at 1,200' AGL
Temporary Oct-18 @ 12:00 - Oct-18 @ 16:00
Wind Visibility
240° at 6 knots
 Gusting to 21 knots
2,092 meters
Clouds
  • Broken at 400' AGL
  • Broken at 1,100' AGL
Conditions
  • Light Rain
  • Mist
Temporary Oct-18 @ 16:00 - Oct-18 @ 20:00
Wind Visibility
260° at 6 knots
 Gusting to 21 knots
3,106 meters
Clouds
  • Broken at 1,100' AGL
Conditions
  • Light Rain
  • Mist
Temporary Oct-18 @ 20:00 - Oct-19 @ 06:00
Wind Visibility
240° at 6 knots 402 meters
Clouds
  • Broken at 200' AGL
  • Broken at 1,100' AGL
Conditions
  • Rain
  • Fog
From Oct-19 @ 08:00 - Oct-19 @ 12:00
Wind Visibility
270° at 10 knots
 Gusting to 23 knots
4,007 meters
Clouds
  • Broken at 1,100' AGL
Conditions
  • Light Rain